Time;durP1;ratioP1;P1;durP2;ratioP2;P2;SDS_P1;SDS_P2;PMS_P1;PMS_P2;Temp;Humidity;BMP_temperature;BMP_pressure;BME280_temperature;BME280_humidity;BME280_pressure;Samples;Min_cycle;Max_cycle;Signal;HPM_P1;HPM_P2
2023/10/27 00:00:44;;;;;;;15.77;14.17;;;9.80;99.90;;;;;;5036507;28;20963;-59
2023/10/27 00:03:11;;;;;;;15.93;13.83;;;9.80;99.90;;;;;;5036278;28;20558;-59
2023/10/27 00:05:38;;;;;;;16.60;14.10;;;9.80;99.90;;;;;;5036021;28;20899;-59
2023/10/27 00:08:05;;;;;;;16.70;14.83;;;9.80;99.90;;;;;;5035832;28;20479;-58
2023/10/27 00:10:37;;;;;;;22.00;14.80;;;9.80;99.90;;;;;;5035999;28;20549;-58
2023/10/27 00:13:04;;;;;;;16.47;14.77;;;9.90;99.90;;;;;;5036459;28;20549;-59
2023/10/27 00:15:31;;;;;;;18.60;15.13;;;9.90;99.90;;;;;;5036351;28;20962;-58
2023/10/27 00:17:59;;;;;;;16.87;15.10;;;9.90;99.90;;;;;;5035799;28;20488;-59
2023/10/27 00:20:27;;;;;;;18.30;14.30;;;9.90;99.90;;;;;;5036049;28;20524;-59
2023/10/27 00:22:54;;;;;;;19.30;16.33;;;9.90;99.90;;;;;;5036225;28;20518;-58
2023/10/27 00:25:21;;;;;;;17.90;15.57;;;9.90;99.90;;;;;;5035542;28;20459;-59
2023/10/27 00:27:50;;;;;;;22.50;17.40;;;10.00;99.90;;;;;;5035457;28;20466;-59
2023/10/27 00:30:17;;;;;;;19.33;16.17;;;10.00;99.90;;;;;;5035862;28;20463;-58
2023/10/27 00:32:46;;;;;;;18.53;16.60;;;10.00;99.90;;;;;;5035517;28;20816;-58
2023/10/27 00:35:13;;;;;;;23.70;17.73;;;10.10;99.90;;;;;;5035444;28;20464;-59
2023/10/27 00:37:40;;;;;;;22.03;17.83;;;10.10;99.90;;;;;;5035530;28;20970;-58
2023/10/27 00:40:09;;;;;;;20.63;15.93;;;10.10;99.90;;;;;;5035676;28;20563;-59
2023/10/27 00:42:36;;;;;;;20.60;15.40;;;10.10;99.90;;;;;;5035648;28;20463;-58
2023/10/27 00:45:05;;;;;;;19.27;14.83;;;10.10;99.90;;;;;;5035269;28;20459;-58
2023/10/27 00:47:33;;;;;;;24.90;16.40;;;10.20;99.90;;;;;;5035792;28;20452;-59
2023/10/27 00:50:00;;;;;;;19.20;15.07;;;10.20;99.90;;;;;;5035592;28;20455;-58
2023/10/27 00:52:28;;;;;;;18.73;15.43;;;10.20;99.90;;;;;;5035567;28;20463;-58
2023/10/27 00:54:57;;;;;;;18.40;14.80;;;10.10;99.90;;;;;;5035588;28;20467;-59
2023/10/27 00:57:24;;;;;;;20.40;14.73;;;10.10;99.90;;;;;;5035763;28;20512;-58
2023/10/27 00:59:53;;;;;;;18.43;14.10;;;10.20;99.90;;;;;;5035061;28;20495;-58
2023/10/27 01:02:21;;;;;;;17.00;14.17;;;10.20;99.90;;;;;;5035071;28;20467;-58
2023/10/27 01:04:49;;;;;;;21.13;14.43;;;10.30;99.90;;;;;;5035463;28;20810;-58
2023/10/27 01:07:16;;;;;;;15.23;13.63;;;10.20;99.90;;;;;;5035494;28;20838;-59
2023/10/27 01:09:44;;;;;;;21.93;13.90;;;10.20;99.90;;;;;;5034628;28;20482;-59
2023/10/27 01:12:11;;;;;;;16.93;13.00;;;10.30;99.90;;;;;;5035178;28;20485;-59
2023/10/27 01:14:39;;;;;;;17.63;13.43;;;10.30;99.90;;;;;;5035201;28;20766;-58
2023/10/27 01:17:06;;;;;;;16.60;12.03;;;10.20;99.90;;;;;;5033671;28;20467;-59
2023/10/27 01:19:36;;;;;;;14.83;12.73;;;10.20;99.90;;;;;;5033321;28;20623;-60
2023/10/27 01:22:03;;;;;;;13.43;11.70;;;10.20;99.90;;;;;;5033443;28;20470;-58
2023/10/27 01:24:32;;;;;;;20.20;13.37;;;10.20;99.90;;;;;;5033342;28;20463;-58
2023/10/27 01:27:00;;;;;;;15.70;12.93;;;10.20;99.90;;;;;;5033338;28;20494;-58
2023/10/27 01:29:28;;;;;;;14.13;12.10;;;10.20;99.90;;;;;;5033941;28;20455;-59
2023/10/27 01:31:55;;;;;;;16.43;12.27;;;10.20;99.90;;;;;;5033415;28;20508;-58
2023/10/27 01:34:22;;;;;;;21.83;13.40;;;10.30;99.90;;;;;;5035020;28;20590;-58
2023/10/27 01:36:49;;;;;;;19.83;13.23;;;10.20;99.90;;;;;;5034947;28;20459;-58
2023/10/27 01:39:17;;;;;;;17.13;11.90;;;10.30;99.90;;;;;;5035056;28;20939;-58
2023/10/27 01:41:46;;;;;;;18.40;11.20;;;10.20;99.90;;;;;;5034698;28;20868;-58
2023/10/27 01:44:13;;;;;;;14.37;11.40;;;10.20;99.90;;;;;;5034462;28;20474;-59
2023/10/27 01:46:40;;;;;;;16.17;12.70;;;10.20;99.90;;;;;;5034127;28;20459;-58
2023/10/27 01:49:07;;;;;;;15.33;11.43;;;10.30;99.90;;;;;;5035108;28;20455;-58
2023/10/27 01:51:34;;;;;;;17.13;11.90;;;10.20;99.90;;;;;;5034880;28;20462;-58
2023/10/27 01:54:02;;;;;;;14.37;10.87;;;10.20;99.90;;;;;;5034613;28;20756;-58
2023/10/27 01:56:33;;;;;;;12.40;10.70;;;10.20;99.90;;;;;;5034284;28;20459;-59
2023/10/27 01:59:01;;;;;;;12.83;10.33;;;10.20;99.90;;;;;;5034888;28;20550;-58
2023/10/27 02:01:28;;;;;;;17.17;9.40;;;10.20;99.90;;;;;;5034709;28;20466;-58
2023/10/27 02:03:56;;;;;;;14.80;9.60;;;10.20;99.90;;;;;;5034243;28;20459;-58
2023/10/27 02:06:28;;;;;;;13.97;10.43;;;10.20;99.90;;;;;;5034234;28;20460;-58
2023/10/27 02:08:55;;;;;;;14.80;9.50;;;10.20;99.90;;;;;;5034371;28;20483;-58
2023/10/27 02:11:23;;;;;;;10.07;8.33;;;10.20;99.90;;;;;;5034552;28;20463;-58
2023/10/27 02:13:50;;;;;;;12.90;8.57;;;10.20;99.90;;;;;;5034308;28;20463;-58
2023/10/27 02:16:18;;;;;;;14.33;9.10;;;10.20;99.90;;;;;;5034682;28;20466;-59
2023/10/27 02:18:46;;;;;;;16.03;8.27;;;10.20;99.90;;;;;;5034177;28;20495;-58
2023/10/27 02:21:13;;;;;;;9.83;8.47;;;10.20;99.90;;;;;;5034354;28;20459;-59
2023/10/27 02:23:40;;;;;;;17.37;9.50;;;10.20;99.90;;;;;;5034271;28;20481;-58
2023/10/27 02:26:07;;;;;;;14.80;9.27;;;10.20;99.90;;;;;;5034160;28;20926;-58
2023/10/27 02:28:34;;;;;;;13.20;8.43;;;10.20;99.90;;;;;;5034275;28;20460;-57
2023/10/27 02:31:01;;;;;;;12.60;8.60;;;10.20;99.90;;;;;;5034189;28;20455;-58
2023/10/27 02:33:30;;;;;;;12.13;7.33;;;10.20;99.90;;;;;;5033619;28;20471;-59
2023/10/27 02:35:57;;;;;;;12.40;7.10;;;10.10;99.90;;;;;;5033837;28;20470;-58
2023/10/27 02:38:24;;;;;;;12.47;6.90;;;10.10;99.90;;;;;;5033997;28;20888;-58
2023/10/27 02:40:51;;;;;;;9.30;6.77;;;10.20;99.90;;;;;;5033975;28;20470;-58
2023/10/27 02:43:19;;;;;;;9.40;6.73;;;10.20;99.90;;;;;;5033720;28;20466;-58
2023/10/27 02:45:46;;;;;;;12.17;6.80;;;10.20;99.90;;;;;;5033956;28;21088;-58
2023/10/27 02:48:13;;;;;;;11.90;6.23;;;10.20;99.90;;;;;;5033687;28;20459;-58
2023/10/27 02:50:41;;;;;;;12.70;7.00;;;10.20;99.90;;;;;;5034029;28;20885;-58
2023/10/27 02:53:09;;;;;;;14.23;6.50;;;10.20;99.90;;;;;;5034279;28;20463;-58
2023/10/27 02:55:36;;;;;;;9.90;6.10;;;10.20;99.90;;;;;;5033717;28;20451;-58
2023/10/27 02:58:03;;;;;;;10.70;5.10;;;10.20;99.90;;;;;;5035412;28;20459;-61
2023/10/27 03:00:31;;;;;;;12.67;6.37;;;10.10;99.90;;;;;;5037531;28;20495;-62
2023/10/27 03:02:58;;;;;;;13.57;5.40;;;10.10;99.90;;;;;;5036931;28;20919;-62
2023/10/27 03:05:25;;;;;;;9.07;6.00;;;10.10;99.90;;;;;;5037440;28;20971;-62
2023/10/27 03:07:53;;;;;;;11.97;7.03;;;10.00;99.90;;;;;;5036960;28;20897;-62
2023/10/27 03:10:20;;;;;;;14.67;5.80;;;10.00;99.90;;;;;;5036670;28;20766;-61
2023/10/27 03:12:48;;;;;;;11.97;6.60;;;10.00;99.90;;;;;;5036963;28;20459;-62
2023/10/27 03:15:18;;;;;;;13.40;6.03;;;10.00;99.90;;;;;;5037323;28;20554;-62
2023/10/27 03:17:45;;;;;;;10.63;5.70;;;10.10;99.90;;;;;;5036708;28;20562;-62
2023/10/27 03:20:13;;;;;;;14.80;6.50;;;10.10;99.90;;;;;;5037081;28;20990;-62
2023/10/27 03:22:41;;;;;;;13.13;6.20;;;10.10;99.90;;;;;;5037051;28;20463;-62
2023/10/27 03:25:10;;;;;;;9.30;6.80;;;10.10;99.90;;;;;;5037544;28;20459;-62
2023/10/27 03:27:37;;;;;;;13.50;6.10;;;10.10;99.90;;;;;;5036879;28;20499;-62
2023/10/27 03:30:04;;;;;;;15.20;6.57;;;10.00;99.90;;;;;;5036828;28;20459;-62
2023/10/27 03:32:31;;;;;;;8.37;5.40;;;10.00;99.90;;;;;;5036902;28;20459;-62
2023/10/27 03:35:00;;;;;;;10.17;6.87;;;10.00;99.90;;;;;;5037286;28;20749;-62
2023/10/27 03:37:27;;;;;;;12.33;7.20;;;10.00;99.90;;;;;;5036987;28;20947;-62
2023/10/27 03:39:54;;;;;;;12.37;7.67;;;10.00;99.90;;;;;;5036287;28;20506;-62
2023/10/27 03:42:23;;;;;;;13.43;7.27;;;10.00;99.90;;;;;;5036504;28;20470;-61
2023/10/27 03:44:51;;;;;;;11.50;7.47;;;10.00;99.90;;;;;;5036504;28;20463;-62
2023/10/27 03:47:18;;;;;;;10.87;6.50;;;9.90;99.90;;;;;;5036809;28;20459;-62
2023/10/27 03:49:45;;;;;;;10.50;7.33;;;10.00;99.90;;;;;;5036355;28;20456;-62
2023/10/27 03:52:12;;;;;;;11.03;6.80;;;10.00;99.90;;;;;;5036558;28;20466;-62
2023/10/27 03:54:40;;;;;;;9.63;6.20;;;10.00;99.90;;;;;;5036352;28;20455;-62
2023/10/27 03:57:07;;;;;;;11.47;7.53;;;10.00;99.90;;;;;;5036612;28;20513;-62
2023/10/27 03:59:36;;;;;;;10.80;7.37;;;10.00;99.90;;;;;;5036617;28;20473;-62
2023/10/27 04:02:04;;;;;;;14.40;7.33;;;9.90;99.90;;;;;;5036266;28;20461;-58
2023/10/27 04:04:31;;;;;;;14.07;7.00;;;9.90;99.90;;;;;;5035998;28;20565;-58
2023/10/27 04:06:59;;;;;;;11.43;7.37;;;10.00;99.90;;;;;;5036262;28;20459;-58
2023/10/27 04:09:26;;;;;;;16.50;7.40;;;10.00;99.90;;;;;;5035038;28;20547;-59
2023/10/27 04:11:53;;;;;;;12.57;6.97;;;9.90;99.90;;;;;;5035479;28;20777;-58
2023/10/27 04:14:21;;;;;;;10.43;6.30;;;9.90;99.90;;;;;;5035850;28;20463;-58
2023/10/27 04:16:49;;;;;;;11.53;6.50;;;9.90;99.90;;;;;;5036130;28;20468;-58
2023/10/27 04:19:16;;;;;;;12.73;7.03;;;9.90;99.90;;;;;;5035330;28;20503;-58
2023/10/27 04:21:43;;;;;;;10.37;6.03;;;9.90;99.90;;;;;;5035706;28;20462;-59
2023/10/27 04:24:11;;;;;;;12.57;7.40;;;9.90;99.90;;;;;;5035833;28;20459;-58
2023/10/27 04:26:38;;;;;;;11.23;6.80;;;9.90;99.90;;;;;;5035874;28;20769;-58
2023/10/27 04:29:06;;;;;;;11.93;7.30;;;9.90;99.90;;;;;;5036021;28;20561;-58
2023/10/27 04:31:33;;;;;;;12.17;7.23;;;9.90;99.90;;;;;;5036005;28;20459;-58
2023/10/27 04:34:02;;;;;;;12.90;6.57;;;9.90;99.90;;;;;;5035508;28;20463;-59
2023/10/27 04:36:29;;;;;;;9.50;6.87;;;9.90;99.90;;;;;;5035614;28;20565;-58
2023/10/27 04:38:56;;;;;;;10.60;6.57;;;9.80;99.90;;;;;;5036025;28;20459;-58
2023/10/27 04:41:24;;;;;;;10.87;6.70;;;9.90;99.90;;;;;;5036120;28;20459;-58
2023/10/27 04:43:51;;;;;;;12.67;7.33;;;9.90;99.90;;;;;;5035543;28;20463;-58
2023/10/27 04:46:18;;;;;;;14.37;7.00;;;9.80;99.90;;;;;;5035563;28;20474;-58
2023/10/27 04:48:45;;;;;;;13.03;6.47;;;9.90;99.90;;;;;;5035917;28;20744;-58
2023/10/27 04:51:14;;;;;;;11.50;7.93;;;9.80;99.90;;;;;;5034935;28;20922;-58
2023/10/27 04:53:41;;;;;;;11.93;7.80;;;9.80;99.90;;;;;;5035171;28;20771;-57
2023/10/27 04:56:08;;;;;;;13.33;6.87;;;9.90;99.90;;;;;;5035362;28;20470;-58
2023/10/27 04:58:35;;;;;;;14.90;7.90;;;9.80;99.90;;;;;;5035285;28;20467;-57
2023/10/27 05:01:03;;;;;;;11.03;6.63;;;9.90;99.90;;;;;;5035468;28;20495;-58
2023/10/27 05:03:30;;;;;;;11.40;7.60;;;9.90;99.90;;;;;;5035355;28;20469;-58
2023/10/27 05:06:07;;;;;;;13.20;8.27;;;9.90;99.90;;;;;;5035260;28;20473;-59
2023/10/27 05:08:36;;;;;;;12.73;7.47;;;9.90;99.90;;;;;;5035167;28;20487;-58
2023/10/27 05:11:04;;;;;;;12.07;7.60;;;9.90;99.90;;;;;;5035177;28;20466;-57
2023/10/27 05:13:31;;;;;;;11.40;8.20;;;9.90;99.90;;;;;;5035165;28;20460;-58
2023/10/27 05:15:58;;;;;;;14.10;8.47;;;9.90;99.90;;;;;;5034807;28;20463;-58
2023/10/27 05:18:27;;;;;;;10.80;8.30;;;9.90;99.90;;;;;;5034278;28;20464;-58
2023/10/27 05:20:54;;;;;;;15.77;8.63;;;9.90;99.90;;;;;;5034102;28;20501;-58
2023/10/27 05:23:21;;;;;;;14.60;9.13;;;9.90;99.90;;;;;;5035146;28;20464;-57
2023/10/27 05:25:52;;;;;;;15.10;8.50;;;9.90;99.90;;;;;;5026675;28;20462;-58
2023/10/27 05:28:19;;;;;;;13.63;8.60;;;9.90;99.90;;;;;;5017897;28;20470;-58
2023/10/27 05:30:50;;;;;;;12.57;9.23;;;9.90;99.90;;;;;;5033380;28;20555;-58
2023/10/27 05:33:17;;;;;;;14.80;9.90;;;9.90;99.90;;;;;;5035149;28;20449;-58
2023/10/27 05:35:44;;;;;;;15.83;8.40;;;9.90;99.90;;;;;;5034559;28;20468;-59
2023/10/27 05:38:11;;;;;;;17.10;8.87;;;9.90;99.90;;;;;;5034713;28;20468;-58
2023/10/27 05:40:39;;;;;;;16.83;9.53;;;9.90;99.90;;;;;;5034723;28;20494;-58
2023/10/27 05:43:08;;;;;;;14.17;8.50;;;9.90;99.90;;;;;;5035046;28;20554;-58
2023/10/27 05:45:35;;;;;;;14.47;8.67;;;10.00;99.90;;;;;;5034767;28;20455;-59
2023/10/27 05:48:02;;;;;;;11.73;8.57;;;9.90;99.90;;;;;;5034547;28;20459;-58
2023/10/27 05:50:29;;;;;;;12.43;8.97;;;9.90;99.90;;;;;;5034852;28;20532;-59
2023/10/27 05:52:56;;;;;;;13.07;8.43;;;9.90;99.90;;;;;;5034610;28;20895;-58
2023/10/27 05:55:25;;;;;;;11.87;8.83;;;9.90;99.90;;;;;;5034803;28;20542;-66
2023/10/27 05:57:53;;;;;;;11.70;9.10;;;9.90;99.90;;;;;;5034263;28;20481;-59
2023/10/27 06:00:22;;;;;;;13.47;8.50;;;9.90;99.90;;;;;;5034847;28;20854;-68
2023/10/27 06:02:52;;;;;;;13.30;8.17;;;9.90;99.90;;;;;;5034378;28;20758;-68
2023/10/27 06:05:20;;;;;;;14.90;9.27;;;9.90;99.90;;;;;;5034592;28;20494;-68
2023/10/27 06:07:47;;;;;;;17.97;8.33;;;9.90;99.90;;;;;;5033920;28;20491;-68
2023/10/27 06:10:15;;;;;;;14.83;9.73;;;9.90;99.90;;;;;;5034027;28;20464;-68
2023/10/27 06:12:42;;;;;;;11.30;7.70;;;9.90;99.90;;;;;;5034322;28;20455;-69
2023/10/27 06:15:10;;;;;;;13.20;8.43;;;10.00;99.90;;;;;;5033906;28;20441;-69
2023/10/27 06:17:38;;;;;;;13.80;8.80;;;10.00;99.90;;;;;;5033785;28;20545;-69
2023/10/27 06:20:07;;;;;;;16.93;9.67;;;10.00;99.90;;;;;;5034011;28;20501;-69
2023/10/27 06:22:34;;;;;;;12.00;7.43;;;10.00;99.90;;;;;;5033968;28;20459;-69
2023/10/27 06:25:03;;;;;;;13.90;7.40;;;10.00;99.90;;;;;;5034100;28;20536;-69
2023/10/27 06:27:31;;;;;;;10.80;7.20;;;10.00;99.90;;;;;;5034049;28;20533;-68
2023/10/27 06:29:58;;;;;;;14.17;7.67;;;10.00;99.90;;;;;;5033899;28;20930;-68
2023/10/27 06:32:27;;;;;;;12.00;8.27;;;10.00;99.90;;;;;;5035460;28;20750;-67
2023/10/27 06:34:56;;;;;;;15.10;9.17;;;10.00;99.90;;;;;;5037126;28;20470;-67
2023/10/27 06:37:24;;;;;;;11.20;8.13;;;10.10;99.90;;;;;;5037588;28;20463;-68
2023/10/27 06:39:54;;;;;;;13.47;8.63;;;10.10;99.90;;;;;;5037408;28;20515;-68
2023/10/27 06:42:22;;;;;;;13.63;7.50;;;10.10;99.90;;;;;;5037441;28;20821;-68
2023/10/27 06:44:49;;;;;;;12.77;8.20;;;10.10;99.90;;;;;;5036869;28;20465;-68
2023/10/27 06:47:18;;;;;;;16.93;8.40;;;10.10;99.90;;;;;;5037308;28;20766;-68
2023/10/27 06:49:45;;;;;;;10.37;8.07;;;10.10;99.90;;;;;;5036825;28;20469;-68
2023/10/27 06:52:14;;;;;;;12.73;7.23;;;10.10;99.90;;;;;;5036683;28;20549;-67
2023/10/27 06:54:41;;;;;;;9.50;7.37;;;10.10;99.90;;;;;;5037352;28;20549;-68
2023/10/27 06:57:09;;;;;;;9.47;7.67;;;10.20;99.90;;;;;;5037179;28;20495;-69
2023/10/27 06:59:36;;;;;;;13.50;7.30;;;10.20;99.90;;;;;;5037192;28;20465;-69
2023/10/27 07:02:04;;;;;;;10.00;6.87;;;10.20;99.90;;;;;;5036993;28;20793;-69
2023/10/27 07:04:31;;;;;;;10.90;6.80;;;10.30;99.90;;;;;;5037407;28;20952;-69
2023/10/27 07:06:58;;;;;;;12.23;7.47;;;10.30;99.90;;;;;;5037104;28;20469;-68
2023/10/27 07:09:27;;;;;;;8.33;6.17;;;10.30;99.90;;;;;;5037236;28;20466;-67
2023/10/27 07:11:54;;;;;;;8.93;6.10;;;10.30;99.90;;;;;;5073758;27;20453;-68
2023/10/27 07:14:22;;;;;;;9.07;6.30;;;10.30;99.90;;;;;;5141026;27;20459;-68
2023/10/27 07:16:51;;;;;;;11.60;5.67;;;10.40;99.90;;;;;;5140705;27;20553;-68
2023/10/27 07:19:19;;;;;;;8.30;6.23;;;10.30;99.90;;;;;;5141897;27;20469;-68
2023/10/27 07:21:46;;;;;;;8.23;5.03;;;10.40;99.90;;;;;;5111880;27;20546;-68
2023/10/27 07:24:14;;;;;;;7.37;4.90;;;10.30;99.90;;;;;;5056669;28;20465;-68
2023/10/27 07:26:42;;;;;;;8.50;6.03;;;10.40;99.90;;;;;;5056833;28;20495;-68
2023/10/27 07:29:10;;;;;;;6.37;5.03;;;10.40;99.90;;;;;;5056909;28;20494;-68
2023/10/27 07:31:37;;;;;;;8.60;6.23;;;10.40;99.90;;;;;;5056402;28;20753;-69
2023/10/27 07:34:05;;;;;;;7.20;4.27;;;10.40;99.90;;;;;;5055592;28;20879;-68
2023/10/27 07:36:33;;;;;;;5.30;3.93;;;10.40;99.90;;;;;;5054183;28;20440;-68
2023/10/27 07:39:00;;;;;;;6.20;4.63;;;10.50;99.90;;;;;;5054257;28;20464;-69
2023/10/27 07:41:27;;;;;;;7.20;4.03;;;10.50;99.90;;;;;;5053919;28;20494;-67
2023/10/27 07:43:56;;;;;;;9.03;4.27;;;10.50;99.90;;;;;;5033779;28;20491;-67
2023/10/27 07:46:24;;;;;;;6.07;3.90;;;10.50;99.90;;;;;;5034939;28;20554;-67
2023/10/27 07:48:52;;;;;;;4.70;3.50;;;10.50;99.90;;;;;;5034461;28;20483;-68
2023/10/27 07:51:19;;;;;;;8.00;4.43;;;10.50;99.90;;;;;;5035139;28;20743;-66
2023/10/27 07:53:47;;;;;;;4.77;4.27;;;10.50;99.90;;;;;;5034430;28;20502;-66
2023/10/27 07:56:14;;;;;;;7.13;3.00;;;10.50;99.90;;;;;;5034833;28;20988;-67
2023/10/27 07:58:42;;;;;;;4.47;3.13;;;10.40;99.90;;;;;;5035083;28;20880;-67
2023/10/27 08:01:10;;;;;;;4.10;3.10;;;10.50;99.90;;;;;;5035490;28;21020;-68
2023/10/27 08:03:38;;;;;;;5.13;3.50;;;10.50;99.90;;;;;;5035736;28;20744;-68
2023/10/27 08:06:07;;;;;;;5.10;3.40;;;10.60;99.90;;;;;;5035110;28;20463;-68
2023/10/27 08:08:37;;;;;;;3.97;3.17;;;10.60;99.90;;;;;;5034635;28;20998;-68
2023/10/27 08:11:06;;;;;;;4.80;2.60;;;10.60;99.90;;;;;;5035275;28;20777;-68
2023/10/27 08:13:33;;;;;;;5.90;3.00;;;10.60;99.90;;;;;;5035039;28;20528;-68
2023/10/27 08:16:00;;;;;;;5.90;2.53;;;10.70;99.90;;;;;;5034697;28;20563;-68
2023/10/27 08:18:29;;;;;;;6.00;2.63;;;10.70;99.90;;;;;;5034716;28;20455;-67
2023/10/27 08:20:57;;;;;;;6.43;3.43;;;10.70;99.90;;;;;;5035595;28;20859;-68
2023/10/27 08:23:25;;;;;;;4.57;3.00;;;10.80;99.90;;;;;;5036110;28;20812;-67
2023/10/27 08:25:53;;;;;;;4.10;2.57;;;10.80;99.90;;;;;;5035894;28;20903;-68
2023/10/27 08:28:20;;;;;;;6.20;2.40;;;10.80;99.90;;;;;;5034363;28;20553;-68
2023/10/27 08:30:48;;;;;;;3.40;2.10;;;10.70;99.90;;;;;;5034831;28;20760;-67
2023/10/27 08:33:15;;;;;;;2.87;2.00;;;10.70;99.90;;;;;;5034330;28;20455;-67
2023/10/27 08:35:44;;;;;;;3.17;2.03;;;10.80;99.90;;;;;;5034903;28;20899;-67
2023/10/27 08:38:12;;;;;;;3.97;2.27;;;10.80;99.90;;;;;;5034623;28;20466;-68
2023/10/27 08:40:39;;;;;;;3.27;2.00;;;10.80;99.90;;;;;;5035123;28;20556;-68
2023/10/27 08:43:07;;;;;;;3.20;2.10;;;10.70;99.90;;;;;;5035458;28;20465;-67
2023/10/27 08:45:35;;;;;;;4.20;2.50;;;10.80;99.90;;;;;;5036051;28;20429;-68
2023/10/27 08:48:02;;;;;;;2.83;1.70;;;10.70;99.90;;;;;;5035274;28;20464;-68
2023/10/27 08:50:31;;;;;;;3.13;2.03;;;10.80;99.90;;;;;;5035737;28;20948;-67
2023/10/27 08:53:00;;;;;;;4.97;2.83;;;10.80;99.90;;;;;;5035548;28;20482;-67
2023/10/27 08:55:28;;;;;;;5.30;3.10;;;10.80;99.90;;;;;;5035460;28;20463;-68
2023/10/27 08:57:56;;;;;;;4.10;2.73;;;10.80;99.90;;;;;;5035061;28;20463;-68
2023/10/27 09:00:23;;;;;;;4.23;2.60;;;10.80;99.90;;;;;;5035119;28;20459;-68
2023/10/27 09:02:51;;;;;;;4.17;2.33;;;10.80;99.90;;;;;;5035532;28;20534;-69
2023/10/27 09:05:18;;;;;;;7.40;3.00;;;10.80;99.90;;;;;;5035513;28;20520;-68
2023/10/27 09:07:47;;;;;;;4.40;2.70;;;10.80;99.90;;;;;;5034812;28;20579;-68
2023/10/27 09:10:18;;;;;;;6.63;3.33;;;10.80;99.90;;;;;;5035606;28;20508;-66
2023/10/27 09:12:47;;;;;;;3.13;2.40;;;10.90;99.90;;;;;;5038063;27;20526;-66
2023/10/27 09:15:14;;;;;;;3.00;2.10;;;11.00;99.90;;;;;;5033816;28;20469;-66
2023/10/27 09:17:52;;;;;;;3.40;2.67;;;11.00;99.90;;;;;;5033299;28;20895;-68
2023/10/27 09:20:21;;;;;;;4.53;2.70;;;11.20;99.90;;;;;;5033512;28;20476;-67
2023/10/27 09:22:57;;;;;;;4.00;3.27;;;11.10;99.90;;;;;;5034071;28;20891;-69
2023/10/27 09:25:30;;;;;;;3.30;3.00;;;11.20;99.90;;;;;;5034121;28;20922;-67
2023/10/27 09:27:59;;;;;;;4.10;3.70;;;11.20;99.90;;;;;;5033886;28;20470;-68
2023/10/27 09:30:27;;;;;;;3.13;2.63;;;11.30;99.90;;;;;;5035336;28;20459;-68
2023/10/27 09:32:55;;;;;;;4.40;3.20;;;11.30;99.90;;;;;;5033332;28;20562;-67
2023/10/27 09:35:24;;;;;;;3.57;3.27;;;11.30;99.90;;;;;;5033290;28;20558;-67
2023/10/27 09:37:55;;;;;;;4.03;3.47;;;11.30;99.90;;;;;;5032942;28;20591;-67
2023/10/27 09:40:22;;;;;;;4.60;3.37;;;11.40;99.90;;;;;;5033653;28;20458;-69
2023/10/27 09:42:55;;;;;;;4.30;3.90;;;11.50;99.90;;;;;;5033426;28;20594;-69
2023/10/27 09:45:28;;;;;;;4.00;3.60;;;11.40;99.90;;;;;;5034070;28;20470;-67
2023/10/27 09:48:03;;;;;;;6.10;3.73;;;11.50;99.90;;;;;;5033980;28;20474;-68
2023/10/27 09:50:31;;;;;;;4.30;2.90;;;11.50;99.90;;;;;;5034771;28;20485;-68
2023/10/27 09:53:00;;;;;;;4.60;3.30;;;11.60;99.90;;;;;;5034887;28;20473;-69
2023/10/27 09:55:28;;;;;;;3.30;3.00;;;11.60;99.90;;;;;;5035311;28;20483;-66
2023/10/27 09:57:57;;;;;;;3.20;2.80;;;11.70;99.90;;;;;;5037589;28;20463;-66
2023/10/27 10:00:28;;;;;;;3.47;2.80;;;11.60;99.90;;;;;;5036894;28;20466;-65
2023/10/27 10:02:56;;;;;;;3.23;2.43;;;11.60;99.90;;;;;;5038244;28;20495;-66
2023/10/27 10:05:24;;;;;;;3.23;2.60;;;11.50;99.90;;;;;;5035280;28;20526;-67
2023/10/27 10:07:56;;;;;;;2.70;2.20;;;11.40;99.90;;;;;;5034153;28;20495;-65
2023/10/27 10:10:29;;;;;;;3.50;2.80;;;11.40;99.90;;;;;;5034194;28;20463;-70
2023/10/27 10:13:12;;;;;;;4.10;3.20;;;11.40;99.90;;;;;;5034651;28;20459;-70
2023/10/27 10:15:40;;;;;;;3.47;3.17;;;11.50;99.90;;;;;;5034372;28;20554;-71
2023/10/27 10:18:09;;;;;;;3.30;3.00;;;11.60;99.90;;;;;;5034099;28;20937;-70
2023/10/27 10:20:59;;;;;;;3.77;3.33;;;11.60;99.90;;;;;;5033751;28;20459;-70
2023/10/27 10:24:08;;;;;;;4.00;3.60;;;11.70;99.90;;;;;;5034710;28;20854;-71
2023/10/27 10:27:10;;;;;;;4.70;3.93;;;11.70;99.90;;;;;;5034319;28;20562;-71
2023/10/27 10:29:40;;;;;;;4.93;4.07;;;11.80;99.90;;;;;;5044179;27;20466;-71
2023/10/27 10:32:33;;;;;;;4.87;4.47;;;11.80;99.90;;;;;;5033847;28;20462;-71
2023/10/27 10:35:21;;;;;;;4.00;3.60;;;12.00;99.90;;;;;;5034179;28;20463;-70
2023/10/27 10:37:48;;;;;;;4.67;4.03;;;11.90;99.90;;;;;;5033673;28;20455;-71
2023/10/27 10:40:22;;;;;;;4.80;4.40;;;11.90;99.90;;;;;;5034225;28;20455;-69
2023/10/27 10:43:21;;;;;;;4.70;4.30;;;11.80;99.90;;;;;;5034233;28;20472;-69
2023/10/27 10:45:51;;;;;;;5.57;4.97;;;11.70;99.90;;;;;;5044675;28;20467;-70
2023/10/27 10:48:19;;;;;;;5.10;4.70;;;11.70;99.90;;;;;;5034374;28;20788;-70
2023/10/27 10:50:47;;;;;;;5.03;4.53;;;11.70;99.90;;;;;;5033549;28;20492;-67
2023/10/27 10:53:16;;;;;;;5.60;5.10;;;11.70;99.90;;;;;;5034150;28;20422;-70
2023/10/27 10:55:45;;;;;;;5.97;5.47;;;11.70;99.90;;;;;;5033702;28;20455;-70
2023/10/27 10:58:20;;;;;;;6.67;6.03;;;11.60;99.90;;;;;;5026047;28;20476;-72
2023/10/27 11:00:49;;;;;;;6.67;5.23;;;11.80;99.90;;;;;;5030943;28;20458;-69
2023/10/27 11:03:17;;;;;;;6.27;5.30;;;12.00;99.90;;;;;;5032232;28;20509;-67
2023/10/27 11:05:45;;;;;;;8.47;5.30;;;12.10;99.90;;;;;;5031441;28;20455;-67
2023/10/27 11:08:12;;;;;;;6.20;5.60;;;12.20;99.90;;;;;;5031109;28;20499;-67
2023/10/27 11:10:40;;;;;;;5.60;5.10;;;12.50;99.90;;;;;;5031927;28;20470;-67
2023/10/27 11:13:07;;;;;;;9.80;5.40;;;12.30;99.90;;;;;;5032197;28;20459;-67
2023/10/27 11:15:43;;;;;;;6.23;5.60;;;12.10;99.90;;;;;;5031772;28;20494;-67
2023/10/27 11:18:15;;;;;;;10.00;5.30;;;12.10;99.90;;;;;;5032189;28;20461;-68
2023/10/27 11:20:43;;;;;;;7.07;5.70;;;12.00;99.90;;;;;;5035666;28;20752;-68
2023/10/27 11:23:13;;;;;;;10.70;6.50;;;11.90;99.90;;;;;;5035593;28;20638;-68
2023/10/27 11:25:40;;;;;;;10.33;6.80;;;11.80;99.90;;;;;;5036187;28;20470;-68
2023/10/27 11:28:23;;;;;;;7.23;6.33;;;11.80;99.90;;;;;;5036757;28;20461;-68
2023/10/27 11:31:03;;;;;;;9.00;6.43;;;11.80;99.90;;;;;;5036483;28;20465;-67
2023/10/27 11:33:33;;;;;;;9.50;7.20;;;11.70;99.90;;;;;;5035980;28;20531;-67
2023/10/27 11:36:02;;;;;;;10.43;6.90;;;11.70;99.90;;;;;;5038258;28;20474;-69
2023/10/27 11:38:33;;;;;;;7.40;6.60;;;11.60;99.90;;;;;;5035977;27;20557;-72
2023/10/27 11:41:12;;;;;;;8.77;7.93;;;11.50;99.90;;;;;;5032752;28;20523;-69
2023/10/27 11:43:40;;;;;;;8.07;7.20;;;11.50;99.90;;;;;;5036114;28;20433;-67
2023/10/27 11:46:11;;;;;;;8.30;7.37;;;11.40;99.90;;;;;;5035809;28;20538;-67
2023/10/27 11:48:41;;;;;;;8.93;8.03;;;11.40;99.90;;;;;;5036274;28;20920;-68
2023/10/27 11:51:08;;;;;;;10.10;9.10;;;11.40;99.90;;;;;;5036224;28;20532;-67
2023/10/27 11:53:40;;;;;;;8.50;7.60;;;11.50;99.90;;;;;;5036250;28;20806;-64
2023/10/27 11:56:08;;;;;;;8.80;8.00;;;11.40;99.90;;;;;;5036755;28;20460;-68
2023/10/27 11:58:35;;;;;;;9.10;8.30;;;11.40;99.90;;;;;;5036754;28;20485;-68
2023/10/27 12:01:02;;;;;;;9.50;8.60;;;11.30;99.90;;;;;;5036461;28;20459;-67
2023/10/27 12:03:29;;;;;;;9.83;8.67;;;11.30;99.90;;;;;;5036259;28;21124;-67
2023/10/27 12:05:58;;;;;;;8.90;8.10;;;11.40;99.90;;;;;;5035898;28;20525;-66
2023/10/27 12:08:26;;;;;;;9.20;7.93;;;11.50;99.90;;;;;;5036102;28;20919;-69
2023/10/27 12:10:53;;;;;;;9.50;8.60;;;11.50;99.90;;;;;;5036193;28;20438;-69
2023/10/27 12:13:21;;;;;;;15.27;9.77;;;11.50;99.90;;;;;;5034890;28;20975;-67
2023/10/27 12:15:49;;;;;;;10.53;9.40;;;11.50;99.90;;;;;;5034402;28;20433;-61
2023/10/27 12:18:19;;;;;;;13.60;9.30;;;11.60;99.90;;;;;;5028678;28;20496;-61
2023/10/27 12:20:47;;;;;;;12.83;10.13;;;11.60;99.90;;;;;;5023158;28;20464;-60
2023/10/27 12:23:18;;;;;;;13.77;9.87;;;11.70;99.90;;;;;;5031706;28;20544;-62
2023/10/27 12:25:45;;;;;;;13.50;10.70;;;11.70;99.90;;;;;;5049383;27;20463;-61
2023/10/27 12:28:12;;;;;;;12.23;10.93;;;11.70;99.90;;;;;;5025514;28;20487;-60
2023/10/27 12:30:40;;;;;;;15.50;13.50;;;11.70;99.90;;;;;;5016740;28;20474;-61
2023/10/27 12:33:09;;;;;;;19.50;12.03;;;11.70;99.90;;;;;;5026268;28;20559;-60
2023/10/27 12:35:37;;;;;;;13.57;11.37;;;11.70;99.90;;;;;;5034649;28;20434;-62
2023/10/27 12:38:05;;;;;;;17.23;11.73;;;11.70;99.90;;;;;;5034822;28;20488;-60
2023/10/27 12:40:35;;;;;;;12.50;10.60;;;11.70;99.90;;;;;;5030750;28;20463;-60
2023/10/27 12:43:04;;;;;;;19.47;11.30;;;11.80;99.90;;;;;;5033438;28;20540;-60
2023/10/27 12:45:32;;;;;;;12.30;11.00;;;11.80;99.90;;;;;;5034245;28;20524;-66
2023/10/27 12:48:01;;;;;;;12.20;10.90;;;12.00;99.90;;;;;;5032750;28;20475;-66